sensor_id;sensor_type;location;lat;lon;timestamp;temperature;humidity
16871;DHT22;8552;48.120;-1.456;2023-07-31T00:01:15;16.70;99.90
16871;DHT22;8552;48.120;-1.456;2023-07-31T00:03:41;16.70;99.90
16871;DHT22;8552;48.120;-1.456;2023-07-31T00:06:07;16.70;99.90
16871;DHT22;8552;48.120;-1.456;2023-07-31T00:08:32;16.70;99.90
16871;DHT22;8552;48.120;-1.456;2023-07-31T00:10:58;16.70;99.90
16871;DHT22;8552;48.120;-1.456;2023-07-31T00:13:24;16.70;99.90
16871;DHT22;8552;48.120;-1.456;2023-07-31T00:15:49;16.70;99.90
16871;DHT22;8552;48.120;-1.456;2023-07-31T00:18:15;16.70;99.90
16871;DHT22;8552;48.120;-1.456;2023-07-31T00:20:41;16.70;99.90
16871;DHT22;8552;48.120;-1.456;2023-07-31T00:23:06;16.70;99.90
16871;DHT22;8552;48.120;-1.456;2023-07-31T00:25:32;16.70;99.90
16871;DHT22;8552;48.120;-1.456;2023-07-31T00:27:58;16.70;99.90
16871;DHT22;8552;48.120;-1.456;2023-07-31T00:30:23;16.70;99.90
16871;DHT22;8552;48.120;-1.456;2023-07-31T00:32:50;16.70;99.90
16871;DHT22;8552;48.120;-1.456;2023-07-31T00:35:16;16.70;99.90
16871;DHT22;8552;48.120;-1.456;2023-07-31T00:37:42;16.70;99.90
16871;DHT22;8552;48.120;-1.456;2023-07-31T00:40:08;16.70;99.90
16871;DHT22;8552;48.120;-1.456;2023-07-31T00:42:34;16.70;99.90
16871;DHT22;8552;48.120;-1.456;2023-07-31T00:44:59;16.70;99.90
16871;DHT22;8552;48.120;-1.456;2023-07-31T00:47:25;16.70;99.90
16871;DHT22;8552;48.120;-1.456;2023-07-31T00:49:51;16.70;99.90
16871;DHT22;8552;48.120;-1.456;2023-07-31T00:52:18;16.80;99.90
16871;DHT22;8552;48.120;-1.456;2023-07-31T00:54:44;16.70;99.90
16871;DHT22;8552;48.120;-1.456;2023-07-31T00:57:10;16.70;99.90
16871;DHT22;8552;48.120;-1.456;2023-07-31T00:59:36;16.80;99.90
16871;DHT22;8552;48.120;-1.456;2023-07-31T01:02:02;16.80;99.90
16871;DHT22;8552;48.120;-1.456;2023-07-31T01:04:28;16.80;99.90
16871;DHT22;8552;48.120;-1.456;2023-07-31T01:12:21;16.80;99.90
16871;DHT22;8552;48.120;-1.456;2023-07-31T01:17:27;16.80;99.90
16871;DHT22;8552;48.120;-1.456;2023-07-31T01:19:54;16.80;99.90
16871;DHT22;8552;48.120;-1.456;2023-07-31T01:28:12;16.80;99.90
16871;DHT22;8552;48.120;-1.456;2023-07-31T01:30:44;16.80;99.90
16871;DHT22;8552;48.120;-1.456;2023-07-31T01:33:10;16.80;99.90
16871;DHT22;8552;48.120;-1.456;2023-07-31T01:35:37;16.80;99.90
16871;DHT22;8552;48.120;-1.456;2023-07-31T01:38:04;16.80;99.90
16871;DHT22;8552;48.120;-1.456;2023-07-31T01:40:30;16.80;99.90
16871;DHT22;8552;48.120;-1.456;2023-07-31T01:42:55;16.80;99.90
16871;DHT22;8552;48.120;-1.456;2023-07-31T01:45:21;16.80;99.90
16871;DHT22;8552;48.120;-1.456;2023-07-31T01:47:47;16.80;99.90
16871;DHT22;8552;48.120;-1.456;2023-07-31T01:50:13;16.80;99.90
16871;DHT22;8552;48.120;-1.456;2023-07-31T01:52:38;16.80;99.90
16871;DHT22;8552;48.120;-1.456;2023-07-31T01:55:04;16.80;99.90
16871;DHT22;8552;48.120;-1.456;2023-07-31T01:57:30;16.80;99.90
16871;DHT22;8552;48.120;-1.456;2023-07-31T01:59:56;16.80;99.90
16871;DHT22;8552;48.120;-1.456;2023-07-31T02:02:22;16.80;99.90
16871;DHT22;8552;48.120;-1.456;2023-07-31T02:04:48;16.80;99.90
16871;DHT22;8552;48.120;-1.456;2023-07-31T02:07:14;16.80;99.90
16871;DHT22;8552;48.120;-1.456;2023-07-31T02:09:40;16.80;99.90
16871;DHT22;8552;48.120;-1.456;2023-07-31T02:12:06;16.80;99.90
16871;DHT22;8552;48.120;-1.456;2023-07-31T02:14:34;16.80;99.90
16871;DHT22;8552;48.120;-1.456;2023-07-31T02:16:59;16.80;99.90
16871;DHT22;8552;48.120;-1.456;2023-07-31T02:19:25;16.80;99.90
16871;DHT22;8552;48.120;-1.456;2023-07-31T02:21:51;16.70;99.90
16871;DHT22;8552;48.120;-1.456;2023-07-31T02:24:16;16.70;99.90
16871;DHT22;8552;48.120;-1.456;2023-07-31T02:26:42;16.70;99.90
16871;DHT22;8552;48.120;-1.456;2023-07-31T02:29:08;16.70;99.90
16871;DHT22;8552;48.120;-1.456;2023-07-31T02:31:34;16.70;99.90
16871;DHT22;8552;48.120;-1.456;2023-07-31T02:34:00;16.70;99.90
16871;DHT22;8552;48.120;-1.456;2023-07-31T02:36:25;16.70;99.90
16871;DHT22;8552;48.120;-1.456;2023-07-31T02:38:51;16.60;99.90
16871;DHT22;8552;48.120;-1.456;2023-07-31T02:41:17;16.60;99.90
16871;DHT22;8552;48.120;-1.456;2023-07-31T02:43:42;16.60;99.90
16871;DHT22;8552;48.120;-1.456;2023-07-31T02:46:09;16.60;99.90
16871;DHT22;8552;48.120;-1.456;2023-07-31T02:48:35;16.60;99.90
16871;DHT22;8552;48.120;-1.456;2023-07-31T02:51:00;16.60;99.90
16871;DHT22;8552;48.120;-1.456;2023-07-31T02:53:26;16.60;99.90
16871;DHT22;8552;48.120;-1.456;2023-07-31T02:55:52;16.60;99.90
16871;DHT22;8552;48.120;-1.456;2023-07-31T02:58:17;16.60;99.90
16871;DHT22;8552;48.120;-1.456;2023-07-31T03:00:44;16.60;99.90
16871;DHT22;8552;48.120;-1.456;2023-07-31T03:03:09;16.60;99.90
16871;DHT22;8552;48.120;-1.456;2023-07-31T03:05:35;16.60;99.90
16871;DHT22;8552;48.120;-1.456;2023-07-31T03:08:01;16.70;99.90
16871;DHT22;8552;48.120;-1.456;2023-07-31T03:10:27;16.70;99.90
16871;DHT22;8552;48.120;-1.456;2023-07-31T03:12:53;16.70;99.90
16871;DHT22;8552;48.120;-1.456;2023-07-31T03:15:18;16.70;99.90
16871;DHT22;8552;48.120;-1.456;2023-07-31T03:17:44;16.70;99.90
16871;DHT22;8552;48.120;-1.456;2023-07-31T03:20:10;16.70;99.90
16871;DHT22;8552;48.120;-1.456;2023-07-31T03:22:36;16.70;99.90
16871;DHT22;8552;48.120;-1.456;2023-07-31T03:25:02;16.80;99.90
16871;DHT22;8552;48.120;-1.456;2023-07-31T03:27:28;16.80;99.90
16871;DHT22;8552;48.120;-1.456;2023-07-31T03:29:54;16.80;99.90
16871;DHT22;8552;48.120;-1.456;2023-07-31T03:32:19;16.80;99.90
16871;DHT22;8552;48.120;-1.456;2023-07-31T03:34:45;16.80;99.90
16871;DHT22;8552;48.120;-1.456;2023-07-31T03:37:11;16.80;99.90
16871;DHT22;8552;48.120;-1.456;2023-07-31T03:39:36;16.80;99.90
16871;DHT22;8552;48.120;-1.456;2023-07-31T03:42:02;16.80;99.90
16871;DHT22;8552;48.120;-1.456;2023-07-31T03:44:28;16.80;99.90
16871;DHT22;8552;48.120;-1.456;2023-07-31T03:46:53;16.80;99.90
16871;DHT22;8552;48.120;-1.456;2023-07-31T03:49:19;16.80;99.90
16871;DHT22;8552;48.120;-1.456;2023-07-31T03:51:45;16.80;99.90
16871;DHT22;8552;48.120;-1.456;2023-07-31T03:54:11;16.80;99.90
16871;DHT22;8552;48.120;-1.456;2023-07-31T03:56:36;16.80;99.90
16871;DHT22;8552;48.120;-1.456;2023-07-31T03:59:04;16.80;99.90
16871;DHT22;8552;48.120;-1.456;2023-07-31T04:01:29;16.80;99.90
16871;DHT22;8552;48.120;-1.456;2023-07-31T04:03:55;16.80;99.90
16871;DHT22;8552;48.120;-1.456;2023-07-31T04:06:21;16.90;99.90
16871;DHT22;8552;48.120;-1.456;2023-07-31T04:08:46;16.90;99.90
16871;DHT22;8552;48.120;-1.456;2023-07-31T04:11:12;16.90;99.90
16871;DHT22;8552;48.120;-1.456;2023-07-31T04:13:39;16.90;99.90
16871;DHT22;8552;48.120;-1.456;2023-07-31T04:16:04;16.90;99.90
16871;DHT22;8552;48.120;-1.456;2023-07-31T04:18:30;16.90;99.90
16871;DHT22;8552;48.120;-1.456;2023-07-31T04:20:56;16.90;99.90
16871;DHT22;8552;48.120;-1.456;2023-07-31T04:23:24;16.90;99.90
16871;DHT22;8552;48.120;-1.456;2023-07-31T04:25:50;16.90;99.90
16871;DHT22;8552;48.120;-1.456;2023-07-31T04:28:15;16.90;99.90
16871;DHT22;8552;48.120;-1.456;2023-07-31T04:30:41;16.90;99.90
16871;DHT22;8552;48.120;-1.456;2023-07-31T04:33:07;16.90;99.90
16871;DHT22;8552;48.120;-1.456;2023-07-31T04:35:32;16.90;99.90
16871;DHT22;8552;48.120;-1.456;2023-07-31T04:37:58;16.90;99.90
16871;DHT22;8552;48.120;-1.456;2023-07-31T04:40:24;16.90;99.90
16871;DHT22;8552;48.120;-1.456;2023-07-31T04:42:49;16.90;99.90
16871;DHT22;8552;48.120;-1.456;2023-07-31T04:45:15;16.90;99.90
16871;DHT22;8552;48.120;-1.456;2023-07-31T04:47:41;17.00;99.90
16871;DHT22;8552;48.120;-1.456;2023-07-31T04:50:07;17.00;99.90
16871;DHT22;8552;48.120;-1.456;2023-07-31T04:52:32;17.00;99.90
16871;DHT22;8552;48.120;-1.456;2023-07-31T04:54:58;17.00;99.90
16871;DHT22;8552;48.120;-1.456;2023-07-31T04:57:24;17.00;99.90
16871;DHT22;8552;48.120;-1.456;2023-07-31T04:59:49;17.00;99.90
16871;DHT22;8552;48.120;-1.456;2023-07-31T05:02:15;17.00;99.90
16871;DHT22;8552;48.120;-1.456;2023-07-31T05:04:41;17.00;99.90
16871;DHT22;8552;48.120;-1.456;2023-07-31T05:07:06;17.00;99.90
16871;DHT22;8552;48.120;-1.456;2023-07-31T05:09:32;17.00;99.90
16871;DHT22;8552;48.120;-1.456;2023-07-31T05:11:58;17.10;99.90
16871;DHT22;8552;48.120;-1.456;2023-07-31T05:14:26;17.10;99.90
16871;DHT22;8552;48.120;-1.456;2023-07-31T05:16:51;17.10;99.90
16871;DHT22;8552;48.120;-1.456;2023-07-31T05:19:17;17.10;99.90
16871;DHT22;8552;48.120;-1.456;2023-07-31T05:21:43;17.10;99.90
16871;DHT22;8552;48.120;-1.456;2023-07-31T05:24:10;17.10;99.90
16871;DHT22;8552;48.120;-1.456;2023-07-31T05:26:36;17.10;99.90
16871;DHT22;8552;48.120;-1.456;2023-07-31T05:29:01;17.10;99.90
16871;DHT22;8552;48.120;-1.456;2023-07-31T05:31:27;17.20;99.90
16871;DHT22;8552;48.120;-1.456;2023-07-31T05:33:53;17.10;99.90
16871;DHT22;8552;48.120;-1.456;2023-07-31T05:36:19;17.20;99.90
16871;DHT22;8552;48.120;-1.456;2023-07-31T05:38:45;17.20;99.90
16871;DHT22;8552;48.120;-1.456;2023-07-31T05:41:13;17.20;99.90
16871;DHT22;8552;48.120;-1.456;2023-07-31T05:43:39;17.20;99.90
16871;DHT22;8552;48.120;-1.456;2023-07-31T05:46:05;17.20;99.90
16871;DHT22;8552;48.120;-1.456;2023-07-31T05:48:32;17.30;99.90
16871;DHT22;8552;48.120;-1.456;2023-07-31T05:50:59;17.30;99.90
16871;DHT22;8552;48.120;-1.456;2023-07-31T05:53:25;17.30;99.90
16871;DHT22;8552;48.120;-1.456;2023-07-31T05:55:51;17.30;99.90
16871;DHT22;8552;48.120;-1.456;2023-07-31T05:58:16;17.30;99.90
16871;DHT22;8552;48.120;-1.456;2023-07-31T06:00:42;17.40;99.90
16871;DHT22;8552;48.120;-1.456;2023-07-31T06:03:08;17.40;99.90
16871;DHT22;8552;48.120;-1.456;2023-07-31T06:05:33;17.40;99.90
16871;DHT22;8552;48.120;-1.456;2023-07-31T06:07:59;17.40;99.90
16871;DHT22;8552;48.120;-1.456;2023-07-31T06:10:25;17.50;99.90
16871;DHT22;8552;48.120;-1.456;2023-07-31T06:12:51;17.50;99.90
16871;DHT22;8552;48.120;-1.456;2023-07-31T06:15:16;17.50;99.90
16871;DHT22;8552;48.120;-1.456;2023-07-31T06:17:44;17.50;99.90
16871;DHT22;8552;48.120;-1.456;2023-07-31T06:20:10;17.50;99.90
16871;DHT22;8552;48.120;-1.456;2023-07-31T06:22:36;17.50;99.90
16871;DHT22;8552;48.120;-1.456;2023-07-31T06:25:02;17.60;99.90
16871;DHT22;8552;48.120;-1.456;2023-07-31T06:27:27;17.60;99.90
16871;DHT22;8552;48.120;-1.456;2023-07-31T06:29:53;17.70;99.90
16871;DHT22;8552;48.120;-1.456;2023-07-31T06:32:19;17.70;99.90
16871;DHT22;8552;48.120;-1.456;2023-07-31T06:34:44;17.70;99.90
16871;DHT22;8552;48.120;-1.456;2023-07-31T06:37:10;17.80;99.90
16871;DHT22;8552;48.120;-1.456;2023-07-31T06:39:36;17.80;99.90
16871;DHT22;8552;48.120;-1.456;2023-07-31T06:42:06;17.80;99.90
16871;DHT22;8552;48.120;-1.456;2023-07-31T06:44:32;17.80;99.90
16871;DHT22;8552;48.120;-1.456;2023-07-31T06:46:58;17.80;99.90
16871;DHT22;8552;48.120;-1.456;2023-07-31T06:49:23;17.90;99.90
16871;DHT22;8552;48.120;-1.456;2023-07-31T06:51:49;17.90;99.90
16871;DHT22;8552;48.120;-1.456;2023-07-31T06:54:15;18.00;99.90
16871;DHT22;8552;48.120;-1.456;2023-07-31T06:56:40;18.00;99.90
16871;DHT22;8552;48.120;-1.456;2023-07-31T06:59:06;18.00;99.90
16871;DHT22;8552;48.120;-1.456;2023-07-31T07:01:32;18.10;99.90
16871;DHT22;8552;48.120;-1.456;2023-07-31T07:03:57;18.10;99.90
16871;DHT22;8552;48.120;-1.456;2023-07-31T07:06:23;18.10;99.90
16871;DHT22;8552;48.120;-1.456;2023-07-31T07:08:49;18.10;99.90
16871;DHT22;8552;48.120;-1.456;2023-07-31T07:11:15;18.20;99.90
16871;DHT22;8552;48.120;-1.456;2023-07-31T07:13:40;18.20;99.90
16871;DHT22;8552;48.120;-1.456;2023-07-31T07:16:06;18.20;99.90
16871;DHT22;8552;48.120;-1.456;2023-07-31T07:18:32;18.20;99.90
16871;DHT22;8552;48.120;-1.456;2023-07-31T07:20:57;18.20;99.90
16871;DHT22;8552;48.120;-1.456;2023-07-31T07:23:24;18.30;99.90
16871;DHT22;8552;48.120;-1.456;2023-07-31T07:25:49;18.30;99.90
16871;DHT22;8552;48.120;-1.456;2023-07-31T07:28:16;18.30;99.90
16871;DHT22;8552;48.120;-1.456;2023-07-31T07:30:42;18.30;99.90
16871;DHT22;8552;48.120;-1.456;2023-07-31T07:33:08;18.40;99.90
16871;DHT22;8552;48.120;-1.456;2023-07-31T07:35:34;18.40;99.90
16871;DHT22;8552;48.120;-1.456;2023-07-31T07:38:01;18.40;99.90
16871;DHT22;8552;48.120;-1.456;2023-07-31T07:40:26;18.30;99.90
16871;DHT22;8552;48.120;-1.456;2023-07-31T07:42:52;18.30;99.90
16871;DHT22;8552;48.120;-1.456;2023-07-31T07:45:18;18.40;99.90
16871;DHT22;8552;48.120;-1.456;2023-07-31T07:47:43;18.40;99.90
16871;DHT22;8552;48.120;-1.456;2023-07-31T07:50:09;18.40;99.90
16871;DHT22;8552;48.120;-1.456;2023-07-31T07:52:35;18.40;99.90
16871;DHT22;8552;48.120;-1.456;2023-07-31T07:55:00;18.40;99.90
16871;DHT22;8552;48.120;-1.456;2023-07-31T07:57:26;18.40;99.90
16871;DHT22;8552;48.120;-1.456;2023-07-31T07:59:52;18.50;99.90
16871;DHT22;8552;48.120;-1.456;2023-07-31T08:02:18;18.50;99.90
16871;DHT22;8552;48.120;-1.456;2023-07-31T08:04:44;18.50;99.90
16871;DHT22;8552;48.120;-1.456;2023-07-31T08:07:12;18.60;99.90
16871;DHT22;8552;48.120;-1.456;2023-07-31T08:09:38;18.60;99.90
16871;DHT22;8552;48.120;-1.456;2023-07-31T08:12:05;18.60;99.90
16871;DHT22;8552;48.120;-1.456;2023-07-31T08:14:31;18.60;99.90
16871;DHT22;8552;48.120;-1.456;2023-07-31T08:16:56;18.60;99.90
16871;DHT22;8552;48.120;-1.456;2023-07-31T08:19:22;18.60;99.90
16871;DHT22;8552;48.120;-1.456;2023-07-31T08:21:48;18.70;99.90
16871;DHT22;8552;48.120;-1.456;2023-07-31T08:24:14;18.70;99.90
16871;DHT22;8552;48.120;-1.456;2023-07-31T08:26:39;18.70;99.90
16871;DHT22;8552;48.120;-1.456;2023-07-31T08:29:05;18.70;99.90
16871;DHT22;8552;48.120;-1.456;2023-07-31T08:31:31;18.70;99.90
16871;DHT22;8552;48.120;-1.456;2023-07-31T08:33:57;18.70;99.90
16871;DHT22;8552;48.120;-1.456;2023-07-31T08:36:22;18.80;99.90
16871;DHT22;8552;48.120;-1.456;2023-07-31T08:38:48;18.70;99.90
16871;DHT22;8552;48.120;-1.456;2023-07-31T08:41:15;18.80;99.90
16871;DHT22;8552;48.120;-1.456;2023-07-31T08:43:47;18.70;99.90
16871;DHT22;8552;48.120;-1.456;2023-07-31T08:46:15;18.70;99.90
16871;DHT22;8552;48.120;-1.456;2023-07-31T08:48:42;18.80;99.90
16871;DHT22;8552;48.120;-1.456;2023-07-31T08:51:08;18.80;99.90
16871;DHT22;8552;48.120;-1.456;2023-07-31T08:53:34;18.90;99.90
16871;DHT22;8552;48.120;-1.456;2023-07-31T08:56:00;18.90;99.90
16871;DHT22;8552;48.120;-1.456;2023-07-31T08:58:31;18.80;99.90
16871;DHT22;8552;48.120;-1.456;2023-07-31T09:00:58;18.90;99.90
16871;DHT22;8552;48.120;-1.456;2023-07-31T09:03:26;18.90;99.90
16871;DHT22;8552;48.120;-1.456;2023-07-31T09:05:52;18.80;99.90
16871;DHT22;8552;48.120;-1.456;2023-07-31T09:08:21;18.80;99.90
16871;DHT22;8552;48.120;-1.456;2023-07-31T09:10:47;18.80;99.90
16871;DHT22;8552;48.120;-1.456;2023-07-31T09:13:15;18.80;99.90
16871;DHT22;8552;48.120;-1.456;2023-07-31T09:15:43;18.90;99.90
16871;DHT22;8552;48.120;-1.456;2023-07-31T09:18:10;18.90;99.90
16871;DHT22;8552;48.120;-1.456;2023-07-31T09:20:36;19.00;99.90
16871;DHT22;8552;48.120;-1.456;2023-07-31T09:23:12;18.90;99.90
16871;DHT22;8552;48.120;-1.456;2023-07-31T09:25:39;18.90;99.90
16871;DHT22;8552;48.120;-1.456;2023-07-31T09:28:09;18.90;99.90
16871;DHT22;8552;48.120;-1.456;2023-07-31T09:30:49;19.00;99.90
16871;DHT22;8552;48.120;-1.456;2023-07-31T09:33:15;19.00;99.90
16871;DHT22;8552;48.120;-1.456;2023-07-31T09:35:41;19.00;99.90
16871;DHT22;8552;48.120;-1.456;2023-07-31T09:38:13;19.10;99.90
16871;DHT22;8552;48.120;-1.456;2023-07-31T09:40:44;19.10;99.90
16871;DHT22;8552;48.120;-1.456;2023-07-31T09:43:12;19.10;99.90
16871;DHT22;8552;48.120;-1.456;2023-07-31T09:45:40;19.20;99.90
16871;DHT22;8552;48.120;-1.456;2023-07-31T09:48:17;19.40;99.90
16871;DHT22;8552;48.120;-1.456;2023-07-31T09:50:45;19.60;99.90
16871;DHT22;8552;48.120;-1.456;2023-07-31T09:53:11;19.70;99.90
16871;DHT22;8552;48.120;-1.456;2023-07-31T09:55:38;20.00;99.90
16871;DHT22;8552;48.120;-1.456;2023-07-31T09:58:08;20.10;99.90
16871;DHT22;8552;48.120;-1.456;2023-07-31T10:00:35;20.30;99.90
16871;DHT22;8552;48.120;-1.456;2023-07-31T10:03:04;20.40;99.90
16871;DHT22;8552;48.120;-1.456;2023-07-31T10:05:54;20.50;99.90
16871;DHT22;8552;48.120;-1.456;2023-07-31T10:08:26;20.70;99.90
16871;DHT22;8552;48.120;-1.456;2023-07-31T10:10:52;20.80;99.90
16871;DHT22;8552;48.120;-1.456;2023-07-31T10:13:18;20.80;99.90
16871;DHT22;8552;48.120;-1.456;2023-07-31T10:15:47;20.80;99.90
16871;DHT22;8552;48.120;-1.456;2023-07-31T10:18:13;21.10;99.90
16871;DHT22;8552;48.120;-1.456;2023-07-31T10:20:40;21.10;99.90
16871;DHT22;8552;48.120;-1.456;2023-07-31T10:23:06;20.90;99.90
16871;DHT22;8552;48.120;-1.456;2023-07-31T10:25:33;20.90;99.90
16871;DHT22;8552;48.120;-1.456;2023-07-31T10:27:59;20.80;99.90
16871;DHT22;8552;48.120;-1.456;2023-07-31T10:30:28;20.60;99.90
16871;DHT22;8552;48.120;-1.456;2023-07-31T10:32:55;20.50;99.90
16871;DHT22;8552;48.120;-1.456;2023-07-31T10:35:22;20.30;99.90
16871;DHT22;8552;48.120;-1.456;2023-07-31T10:37:48;20.30;99.90
16871;DHT22;8552;48.120;-1.456;2023-07-31T10:40:24;20.30;99.90
16871;DHT22;8552;48.120;-1.456;2023-07-31T10:42:55;20.20;99.90
16871;DHT22;8552;48.120;-1.456;2023-07-31T10:45:30;20.20;99.90
16871;DHT22;8552;48.120;-1.456;2023-07-31T10:48:07;20.10;99.90
16871;DHT22;8552;48.120;-1.456;2023-07-31T10:50:38;20.10;99.90
16871;DHT22;8552;48.120;-1.456;2023-07-31T10:53:04;20.00;99.90
16871;DHT22;8552;48.120;-1.456;2023-07-31T10:55:33;20.00;99.90
16871;DHT22;8552;48.120;-1.456;2023-07-31T10:58:10;19.90;99.90
16871;DHT22;8552;48.120;-1.456;2023-07-31T11:00:41;19.90;99.90
16871;DHT22;8552;48.120;-1.456;2023-07-31T11:03:13;20.00;99.90
16871;DHT22;8552;48.120;-1.456;2023-07-31T11:05:44;20.10;99.90
16871;DHT22;8552;48.120;-1.456;2023-07-31T11:08:19;20.10;99.90
16871;DHT22;8552;48.120;-1.456;2023-07-31T11:10:47;20.30;99.90
16871;DHT22;8552;48.120;-1.456;2023-07-31T11:13:13;20.30;99.90
16871;DHT22;8552;48.120;-1.456;2023-07-31T11:15:39;20.40;99.90
16871;DHT22;8552;48.120;-1.456;2023-07-31T11:18:05;20.40;99.90
16871;DHT22;8552;48.120;-1.456;2023-07-31T11:20:33;20.40;99.90
16871;DHT22;8552;48.120;-1.456;2023-07-31T11:23:07;20.40;99.90
16871;DHT22;8552;48.120;-1.456;2023-07-31T11:25:34;20.40;99.90
16871;DHT22;8552;48.120;-1.456;2023-07-31T11:28:09;20.20;99.90
16871;DHT22;8552;48.120;-1.456;2023-07-31T11:30:35;20.20;99.90
16871;DHT22;8552;48.120;-1.456;2023-07-31T11:33:02;20.20;99.90
16871;DHT22;8552;48.120;-1.456;2023-07-31T11:35:30;20.20;99.90
16871;DHT22;8552;48.120;-1.456;2023-07-31T11:37:56;20.20;99.90
16871;DHT22;8552;48.120;-1.456;2023-07-31T11:40:22;20.30;99.90
16871;DHT22;8552;48.120;-1.456;2023-07-31T11:42:47;20.30;99.90
16871;DHT22;8552;48.120;-1.456;2023-07-31T11:45:13;20.20;99.90
16871;DHT22;8552;48.120;-1.456;2023-07-31T11:47:39;20.20;99.90
16871;DHT22;8552;48.120;-1.456;2023-07-31T11:50:07;20.10;99.90
16871;DHT22;8552;48.120;-1.456;2023-07-31T11:52:42;20.20;99.90
16871;DHT22;8552;48.120;-1.456;2023-07-31T11:55:09;20.30;99.90
16871;DHT22;8552;48.120;-1.456;2023-07-31T11:57:37;20.40;99.90
16871;DHT22;8552;48.120;-1.456;2023-07-31T12:00:04;20.50;99.90
16871;DHT22;8552;48.120;-1.456;2023-07-31T12:02:30;20.60;99.90
16871;DHT22;8552;48.120;-1.456;2023-07-31T12:04:55;20.50;99.90
16871;DHT22;8552;48.120;-1.456;2023-07-31T12:07:21;20.50;99.90
16871;DHT22;8552;48.120;-1.456;2023-07-31T12:09:54;20.50;99.90
16871;DHT22;8552;48.120;-1.456;2023-07-31T12:12:21;20.40;99.90
16871;DHT22;8552;48.120;-1.456;2023-07-31T12:14:47;20.50;99.90
16871;DHT22;8552;48.120;-1.456;2023-07-31T12:17:14;20.50;99.90
16871;DHT22;8552;48.120;-1.456;2023-07-31T12:19:40;20.70;99.90
16871;DHT22;8552;48.120;-1.456;2023-07-31T12:22:13;20.80;99.90
16871;DHT22;8552;48.120;-1.456;2023-07-31T12:24:43;20.90;99.90
16871;DHT22;8552;48.120;-1.456;2023-07-31T12:27:14;21.00;99.90
16871;DHT22;8552;48.120;-1.456;2023-07-31T12:29:41;21.30;99.90
16871;DHT22;8552;48.120;-1.456;2023-07-31T12:32:23;21.40;99.90
16871;DHT22;8552;48.120;-1.456;2023-07-31T12:34:51;21.50;99.90
16871;DHT22;8552;48.120;-1.456;2023-07-31T12:37:17;21.50;99.90
16871;DHT22;8552;48.120;-1.456;2023-07-31T12:39:43;21.40;99.90
16871;DHT22;8552;48.120;-1.456;2023-07-31T12:42:08;21.30;99.90
16871;DHT22;8552;48.120;-1.456;2023-07-31T12:44:34;21.30;99.90
16871;DHT22;8552;48.120;-1.456;2023-07-31T12:47:00;21.10;99.90
16871;DHT22;8552;48.120;-1.456;2023-07-31T12:49:25;21.00;99.90
16871;DHT22;8552;48.120;-1.456;2023-07-31T12:51:51;20.90;99.90
16871;DHT22;8552;48.120;-1.456;2023-07-31T12:54:16;20.90;99.90
16871;DHT22;8552;48.120;-1.456;2023-07-31T12:56:42;20.80;99.90
16871;DHT22;8552;48.120;-1.456;2023-07-31T12:59:08;20.80;99.90
16871;DHT22;8552;48.120;-1.456;2023-07-31T13:01:33;20.90;99.90
16871;DHT22;8552;48.120;-1.456;2023-07-31T13:03:59;20.90;99.90
16871;DHT22;8552;48.120;-1.456;2023-07-31T13:06:25;20.90;99.90
16871;DHT22;8552;48.120;-1.456;2023-07-31T13:08:51;20.80;99.90
16871;DHT22;8552;48.120;-1.456;2023-07-31T13:11:17;20.70;99.90
16871;DHT22;8552;48.120;-1.456;2023-07-31T13:13:43;20.70;99.90
16871;DHT22;8552;48.120;-1.456;2023-07-31T13:16:08;20.60;99.90
16871;DHT22;8552;48.120;-1.456;2023-07-31T13:18:34;20.60;99.90
16871;DHT22;8552;48.120;-1.456;2023-07-31T13:21:00;20.50;99.90
16871;DHT22;8552;48.120;-1.456;2023-07-31T13:23:25;20.50;99.90
16871;DHT22;8552;48.120;-1.456;2023-07-31T13:25:51;20.40;99.90
16871;DHT22;8552;48.120;-1.456;2023-07-31T13:28:17;20.30;99.90
16871;DHT22;8552;48.120;-1.456;2023-07-31T13:30:42;20.30;99.90
16871;DHT22;8552;48.120;-1.456;2023-07-31T13:33:08;20.20;99.90
16871;DHT22;8552;48.120;-1.456;2023-07-31T13:35:33;20.20;99.90
16871;DHT22;8552;48.120;-1.456;2023-07-31T13:37:59;20.30;99.90
16871;DHT22;8552;48.120;-1.456;2023-07-31T13:40:25;20.10;99.90
16871;DHT22;8552;48.120;-1.456;2023-07-31T13:42:50;20.00;99.90
16871;DHT22;8552;48.120;-1.456;2023-07-31T13:45:16;19.90;99.90
16871;DHT22;8552;48.120;-1.456;2023-07-31T13:47:42;19.90;99.90
16871;DHT22;8552;48.120;-1.456;2023-07-31T13:50:08;19.80;99.90
16871;DHT22;8552;48.120;-1.456;2023-07-31T13:52:34;19.80;99.90
16871;DHT22;8552;48.120;-1.456;2023-07-31T13:54:59;19.80;99.90
16871;DHT22;8552;48.120;-1.456;2023-07-31T13:57:25;19.80;99.90
16871;DHT22;8552;48.120;-1.456;2023-07-31T13:59:50;19.80;99.90
16871;DHT22;8552;48.120;-1.456;2023-07-31T14:02:16;19.70;99.90
16871;DHT22;8552;48.120;-1.456;2023-07-31T14:04:42;19.60;99.90
16871;DHT22;8552;48.120;-1.456;2023-07-31T14:07:07;19.60;99.90
16871;DHT22;8552;48.120;-1.456;2023-07-31T14:09:33;19.50;99.90
16871;DHT22;8552;48.120;-1.456;2023-07-31T14:11:59;19.50;99.90
16871;DHT22;8552;48.120;-1.456;2023-07-31T14:14:24;19.50;99.90
16871;DHT22;8552;48.120;-1.456;2023-07-31T14:16:50;19.40;99.90
16871;DHT22;8552;48.120;-1.456;2023-07-31T14:19:16;19.50;99.90
16871;DHT22;8552;48.120;-1.456;2023-07-31T14:21:41;19.40;99.90
16871;DHT22;8552;48.120;-1.456;2023-07-31T14:24:07;19.40;99.90
16871;DHT22;8552;48.120;-1.456;2023-07-31T14:26:33;19.40;99.90
16871;DHT22;8552;48.120;-1.456;2023-07-31T14:28:58;19.40;99.90
16871;DHT22;8552;48.120;-1.456;2023-07-31T14:31:24;19.40;99.90
16871;DHT22;8552;48.120;-1.456;2023-07-31T14:33:50;19.30;99.90
16871;DHT22;8552;48.120;-1.456;2023-07-31T14:36:15;19.30;99.90
16871;DHT22;8552;48.120;-1.456;2023-07-31T14:38:41;19.40;99.90
16871;DHT22;8552;48.120;-1.456;2023-07-31T14:41:07;19.40;99.90
16871;DHT22;8552;48.120;-1.456;2023-07-31T14:43:32;19.30;99.90
16871;DHT22;8552;48.120;-1.456;2023-07-31T14:45:58;19.10;99.90
16871;DHT22;8552;48.120;-1.456;2023-07-31T14:48:26;19.10;99.90
16871;DHT22;8552;48.120;-1.456;2023-07-31T14:50:52;19.10;99.90
16871;DHT22;8552;48.120;-1.456;2023-07-31T14:53:18;19.00;99.90
16871;DHT22;8552;48.120;-1.456;2023-07-31T14:55:44;19.00;99.90
16871;DHT22;8552;48.120;-1.456;2023-07-31T14:58:09;19.00;99.90
16871;DHT22;8552;48.120;-1.456;2023-07-31T15:00:36;19.00;99.90
16871;DHT22;8552;48.120;-1.456;2023-07-31T15:03:03;19.00;99.90
16871;DHT22;8552;48.120;-1.456;2023-07-31T15:05:28;19.00;99.90
16871;DHT22;8552;48.120;-1.456;2023-07-31T15:07:54;19.10;99.90
16871;DHT22;8552;48.120;-1.456;2023-07-31T15:10:20;19.10;99.90
16871;DHT22;8552;48.120;-1.456;2023-07-31T15:12:46;19.00;99.90
16871;DHT22;8552;48.120;-1.456;2023-07-31T15:15:11;19.00;99.90
16871;DHT22;8552;48.120;-1.456;2023-07-31T15:17:37;19.00;99.90
16871;DHT22;8552;48.120;-1.456;2023-07-31T15:20:03;19.00;99.90
16871;DHT22;8552;48.120;-1.456;2023-07-31T15:22:29;19.10;99.90
16871;DHT22;8552;48.120;-1.456;2023-07-31T15:24:56;19.20;99.90
16871;DHT22;8552;48.120;-1.456;2023-07-31T15:27:22;19.20;99.90
16871;DHT22;8552;48.120;-1.456;2023-07-31T15:29:49;19.30;99.90
16871;DHT22;8552;48.120;-1.456;2023-07-31T15:32:18;19.40;99.90
16871;DHT22;8552;48.120;-1.456;2023-07-31T15:34:44;19.40;99.90
16871;DHT22;8552;48.120;-1.456;2023-07-31T15:37:10;19.40;99.90
16871;DHT22;8552;48.120;-1.456;2023-07-31T15:39:36;19.50;99.90